Time;durP1;ratioP1;P1;durP2;ratioP2;P2;SDS_P1;SDS_P2;PMS_P1;PMS_P2;Temp;Humidity;BMP_temperature;BMP_pressure;BME280_temperature;BME280_humidity;BME280_pressure;Samples;Min_cycle;Max_cycle;Signal;HPM_P1;HPM_P2
2022/10/14 00:01:10;;;;;;;10.40;3.90;;;;;;;13.41;91.63;98900.28;4841908;29;20603;-57
2022/10/14 00:03:38;;;;;;;9.57;4.13;;;;;;;13.37;93.28;98893.69;4846049;29;20273;-56
2022/10/14 00:06:09;;;;;;;7.77;3.63;;;;;;;13.30;94.65;98892.69;4842521;29;20245;-57
2022/10/14 00:08:35;;;;;;;8.70;4.30;;;;;;;13.25;96.25;98898.41;4843638;29;20268;-55
2022/10/14 00:11:07;;;;;;;6.77;3.80;;;;;;;13.19;97.07;98893.81;4839932;29;20266;-57
2022/10/14 00:13:34;;;;;;;6.93;3.60;;;;;;;13.16;97.61;98883.66;4842162;29;20579;-56
2022/10/14 00:16:01;;;;;;;6.13;3.53;;;;;;;13.12;98.20;98882.34;4843880;29;20240;-57
2022/10/14 00:18:28;;;;;;;7.27;3.97;;;;;;;13.09;98.91;98890.53;4842440;29;20239;-58
2022/10/14 00:20:55;;;;;;;6.53;3.67;;;;;;;13.11;99.74;98886.75;4846371;29;20238;-58
2022/10/14 00:23:23;;;;;;;14.87;4.57;;;;;;;13.02;100.00;98885.09;4842221;29;21284;-57
2022/10/14 00:25:51;;;;;;;7.13;4.00;;;;;;;13.02;100.00;98885.09;4841788;29;20238;-57
2022/10/14 00:28:19;;;;;;;13.00;4.30;;;;;;;12.95;100.00;98881.47;4842296;29;20236;-56
2022/10/14 00:30:54;;;;;;;8.40;4.30;;;;;;;12.95;100.00;98878.84;4842941;29;20250;-57
2022/10/14 00:33:20;;;;;;;9.23;3.90;;;;;;;12.91;100.00;98877.53;4838778;29;20237;-56
2022/10/14 00:35:54;;;;;;;4.67;3.80;;;;;;;12.90;100.00;98870.66;4857638;29;20253;-56
2022/10/14 00:38:22;;;;;;;10.93;4.57;;;;;;;12.92;100.00;98874.75;4840591;29;20240;-55
2022/10/14 00:40:49;;;;;;;7.37;4.40;;;;;;;12.93;100.00;98886.88;4844650;29;20287;-57
2022/10/14 00:43:16;;;;;;;6.87;4.30;;;;;;;12.92;100.00;98882.63;4841512;29;20251;-59
2022/10/14 00:45:43;;;;;;;11.03;5.97;;;;;;;12.81;100.00;98878.47;4844149;29;20785;-58
2022/10/14 00:48:11;;;;;;;7.33;4.40;;;;;;;12.83;100.00;98886.19;4841876;29;20234;-57
2022/10/14 00:50:40;;;;;;;10.10;4.20;;;;;;;12.81;100.00;98888.16;4845191;29;20240;-58
2022/10/14 00:53:09;;;;;;;11.70;4.77;;;;;;;12.77;100.00;98890.25;4841866;29;20236;-57
2022/10/14 00:55:38;;;;;;;9.10;4.87;;;;;;;12.79;100.00;98890.91;4842134;29;20343;-58
2022/10/14 00:58:06;;;;;;;9.13;5.10;;;;;;;12.76;100.00;98886.00;4840923;29;20234;-56
2022/10/14 01:00:33;;;;;;;10.90;5.30;;;;;;;12.76;100.00;98886.00;4843864;29;20620;-57
2022/10/14 01:03:00;;;;;;;10.83;6.17;;;;;;;12.77;100.00;98886.84;4841723;29;20234;-58
2022/10/14 01:05:36;;;;;;;8.67;5.50;;;;;;;12.75;100.00;98876.50;4842260;29;20694;-59
2022/10/14 01:08:09;;;;;;;7.70;5.17;;;;;;;12.75;100.00;98878.31;4841410;29;20283;-59
2022/10/14 01:10:43;;;;;;;9.73;5.57;;;;;;;12.74;100.00;98881.91;4843605;29;20242;-59
2022/10/14 01:13:25;;;;;;;12.83;6.67;;;;;;;12.69;100.00;98885.81;4835590;29;20250;-57
2022/10/14 01:16:00;;;;;;;9.70;6.43;;;;;;;12.67;100.00;98877.31;4843003;29;20257;-57
2022/10/14 01:18:40;;;;;;;11.83;5.83;;;;;;;12.61;100.00;98870.06;4840338;29;20260;-57
2022/10/14 01:21:17;;;;;;;12.13;5.57;;;;;;;12.59;100.00;98868.59;4835733;29;20320;-58
2022/10/14 01:24:17;;;;;;;12.00;5.37;;;;;;;12.58;100.00;98877.44;4840233;29;20236;-60
2022/10/14 01:26:59;;;;;;;8.67;4.93;;;;;;;12.57;100.00;98867.94;4836855;29;20968;-57
2022/10/14 01:29:48;;;;;;;9.47;5.23;;;;;;;12.54;100.00;98867.28;4852994;29;20231;-58
2022/10/14 01:32:21;;;;;;;11.07;4.80;;;;;;;12.50;100.00;98863.34;4837906;29;20742;-56
2022/10/14 01:34:53;;;;;;;13.23;4.80;;;;;;;12.49;100.00;98860.84;4845223;29;20231;-59
2022/10/14 01:37:26;;;;;;;6.67;4.60;;;;;;;12.50;100.00;98850.25;4841059;29;20237;-57
2022/10/14 01:39:58;;;;;;;6.87;4.53;;;;;;;12.49;100.00;98856.47;4844010;29;20866;-58
2022/10/14 01:42:33;;;;;;;10.57;4.53;;;;;;;12.42;100.00;98857.22;4843398;29;20327;-56
2022/10/14 01:45:08;;;;;;;6.20;4.00;;;;;;;12.39;100.00;98855.75;4842750;29;20293;-58
2022/10/14 01:47:38;;;;;;;10.10;4.47;;;;;;;12.40;100.00;98857.41;4841739;29;20297;-57
2022/10/14 01:50:10;;;;;;;9.77;4.63;;;;;;;12.39;100.00;98859.19;4839202;29;20224;-55
2022/10/14 01:52:41;;;;;;;10.37;4.60;;;;;;;12.30;100.00;98854.88;4844066;29;20245;-56
2022/10/14 01:55:13;;;;;;;5.73;3.97;;;;;;;12.29;100.00;98857.66;4839886;29;20600;-57
2022/10/14 01:57:43;;;;;;;7.83;4.60;;;;;;;12.29;100.00;98873.38;4843386;29;20484;-57
2022/10/14 02:00:12;;;;;;;11.70;5.50;;;;;;;12.29;100.00;98868.13;4838781;29;20284;-56
2022/10/14 02:02:42;;;;;;;10.87;4.83;;;;;;;12.30;100.00;98860.13;4842196;29;20301;-57
2022/10/14 02:05:17;;;;;;;7.53;4.43;;;;;;;12.34;100.00;98858.03;4837353;29;20234;-57
2022/10/14 02:07:46;;;;;;;13.70;4.57;;;;;;;12.32;100.00;98847.69;4840014;29;20228;-55
2022/10/14 02:10:21;;;;;;;6.43;4.03;;;;;;;12.34;100.00;98845.75;4837043;29;20230;-55
2022/10/14 02:13:02;;;;;;;8.40;4.37;;;;;;;12.32;100.00;98839.84;4842689;29;20248;-56
2022/10/14 02:15:37;;;;;;;6.63;4.23;;;;;;;12.37;100.00;98834.16;4848529;29;20282;-56
2022/10/14 02:18:16;;;;;;;11.50;3.93;;;;;;;12.37;100.00;98836.75;4834235;29;20587;-57
2022/10/14 02:20:53;;;;;;;9.87;4.43;;;;;;;12.37;100.00;98818.44;4840360;29;20233;-57
2022/10/14 02:23:23;;;;;;;8.83;4.57;;;;;;;12.35;100.00;98815.16;4837483;29;20244;-55
2022/10/14 02:25:51;;;;;;;10.70;4.43;;;;;;;12.37;100.00;98810.59;4837595;29;20641;-57
2022/10/14 02:28:21;;;;;;;8.53;4.00;;;;;;;12.35;100.00;98815.97;4836272;29;20698;-56
2022/10/14 02:30:53;;;;;;;9.67;4.13;;;;;;;12.36;100.00;98814.19;4836767;29;20247;-57
2022/10/14 02:33:22;;;;;;;6.50;4.17;;;;;;;12.35;100.00;98815.97;4838130;29;20237;-57
2022/10/14 02:35:51;;;;;;;6.57;3.80;;;;;;;12.35;100.00;98804.69;4843999;29;20247;-56
2022/10/14 02:38:19;;;;;;;7.77;4.10;;;;;;;12.32;100.00;98805.00;4840439;29;20317;-56
2022/10/14 02:40:49;;;;;;;10.83;4.50;;;;;;;12.31;100.00;98798.94;4856185;29;20244;-57
2022/10/14 02:43:16;;;;;;;10.80;4.90;;;;;;;12.37;100.00;98792.25;4836303;29;20245;-57
2022/10/14 02:45:44;;;;;;;11.30;3.97;;;;;;;12.30;100.00;98796.50;4839618;29;20247;-57
2022/10/14 02:48:12;;;;;;;8.57;4.67;;;;;;;12.30;100.00;98788.63;4837130;29;20245;-57
2022/10/14 02:50:40;;;;;;;14.87;5.33;;;;;;;12.28;100.00;98780.13;4841364;29;20231;-57
2022/10/14 02:53:07;;;;;;;8.00;5.20;;;;;;;12.29;100.00;98784.38;4837893;29;20292;-56
2022/10/14 02:55:34;;;;;;;7.87;4.43;;;;;;;12.32;100.00;98784.06;4839307;29;20241;-57
2022/10/14 02:58:00;;;;;;;6.67;5.00;;;;;;;12.31;100.00;98772.75;4842336;29;20253;-57
2022/10/14 03:03:03;;;;;;;12.60;4.80;;;;;;;12.31;100.00;98772.75;4818557;29;20742;-57
2022/10/14 03:05:32;;;;;;;11.00;4.50;;;;;;;12.32;100.00;98758.69;4823464;29;20261;-57
2022/10/14 03:07:58;;;;;;;9.90;4.57;;;;;;;12.35;100.00;98749.72;4819980;29;20246;-57
2022/10/14 03:10:27;;;;;;;8.27;4.37;;;;;;;12.36;100.00;98753.97;4820184;29;20238;-57
2022/10/14 03:12:54;;;;;;;12.27;4.63;;;;;;;12.37;100.00;98750.38;4822360;29;20731;-57
2022/10/14 03:15:29;;;;;;;9.30;4.83;;;;;;;12.38;100.00;98750.22;4817581;29;20245;-58
2022/10/14 03:17:56;;;;;;;6.53;4.40;;;;;;;12.42;100.00;98742.03;4823996;29;20256;-57
2022/10/14 03:20:37;;;;;;;11.83;4.90;;;;;;;12.44;100.00;98737.47;4835457;29;20610;-57
2022/10/14 03:23:05;;;;;;;9.20;4.13;;;;;;;12.40;100.00;98736.97;4821868;29;20245;-57
2022/10/14 03:25:35;;;;;;;7.22;4.68;;;;;;;12.41;100.00;98733.38;4839294;29;20526;-58
2022/10/14 03:28:06;;;;;;;6.97;4.53;;;;;;;12.43;100.00;98734.03;4825095;29;20246;-58
2022/10/14 03:30:42;;;;;;;6.63;4.17;;;;;;;12.45;100.00;98741.72;4840737;29;20238;-58
2022/10/14 03:33:15;;;;;;;7.13;4.37;;;;;;;12.46;100.00;98736.34;4823392;29;20284;-57
2022/10/14 03:36:03;;;;;;;12.47;4.93;;;;;;;12.44;100.00;98733.06;4825488;29;20234;-57
2022/10/14 03:38:43;;;;;;;9.80;4.53;;;;;;;12.44;100.00;98732.22;4823502;29;20238;-57
2022/10/14 03:41:18;;;;;;;8.43;4.60;;;;;;;12.39;100.00;98727.47;4832789;29;20712;-56
2022/10/14 03:43:46;;;;;;;9.20;4.97;;;;;;;12.35;100.00;98732.19;4824158;29;20253;-57
2022/10/14 03:46:13;;;;;;;9.87;4.67;;;;;;;12.39;100.00;98728.28;4823845;29;20326;-57
2022/10/14 03:48:42;;;;;;;10.83;4.63;;;;;;;12.36;100.00;98723.38;4823006;29;20314;-58
2022/10/14 03:51:10;;;;;;;9.20;5.43;;;;;;;12.35;100.00;98721.72;4823900;29;20235;-57
2022/10/14 03:53:37;;;;;;;9.80;4.07;;;;;;;12.36;100.00;98722.56;4843126;29;20266;-57
2022/10/14 03:56:05;;;;;;;9.40;4.17;;;;;;;12.36;100.00;98726.00;4839212;29;20237;-57
2022/10/14 03:58:34;;;;;;;9.33;4.50;;;;;;;12.38;100.00;98720.63;4830829;29;20298;-57
2022/10/14 04:01:06;;;;;;;9.60;5.47;;;;;;;12.36;100.00;98710.28;4803942;29;20254;-57
2022/10/14 04:03:54;;;;;;;7.60;4.07;;;;;;;12.40;100.00;98701.13;4804922;29;20246;-57
2022/10/14 04:06:22;;;;;;;10.37;4.80;;;;;;;12.42;100.00;98708.84;4805142;29;20694;-58
2022/10/14 04:08:54;;;;;;;6.83;4.30;;;;;;;12.38;100.00;98699.66;4826167;29;20238;-57
2022/10/14 04:11:28;;;;;;;11.70;5.17;;;;;;;12.39;100.00;98701.31;4821790;29;20318;-55
2022/10/14 04:14:01;;;;;;;11.57;4.83;;;;;;;12.39;100.00;98696.06;4839015;29;20234;-55
2022/10/14 04:16:30;;;;;;;9.87;4.97;;;;;;;12.36;100.00;98693.78;4822584;29;20632;-58
2022/10/14 04:19:01;;;;;;;7.53;4.17;;;;;;;12.42;100.00;98684.44;4818018;29;20636;-56
2022/10/14 04:21:32;;;;;;;9.17;4.43;;;;;;;12.49;100.00;98683.66;4821395;29;20326;-57
2022/10/14 04:23:58;;;;;;;8.30;5.03;;;;;;;12.57;100.00;98685.44;4823650;29;20269;-57
2022/10/14 04:26:38;;;;;;;10.53;4.50;;;;;;;12.58;100.00;98678.44;4818517;29;20308;-56
2022/10/14 04:29:11;;;;;;;6.00;4.37;;;;;;;12.64;100.00;98685.63;4820500;29;20287;-56
2022/10/14 04:31:49;;;;;;;7.37;4.70;;;;;;;12.72;100.00;98684.81;4823673;29;20242;-56
2022/10/14 04:34:17;;;;;;;6.60;4.10;;;;;;;12.69;100.00;98689.41;4819467;29;20237;-57
2022/10/14 04:36:45;;;;;;;8.67;4.63;;;;;;;12.68;100.00;98679.91;4841899;29;20233;-57
2022/10/14 04:39:37;;;;;;;8.20;4.53;;;;;;;12.69;100.00;98686.78;4837157;29;20261;-57
2022/10/14 04:42:05;;;;;;;6.40;4.37;;;;;;;12.79;100.00;98675.31;4821592;29;20243;-57
2022/10/14 04:44:32;;;;;;;6.50;4.40;;;;;;;12.81;100.00;98673.34;4826610;29;20595;-57
2022/10/14 04:47:00;;;;;;;7.60;4.73;;;;;;;12.84;100.00;98668.59;4840838;29;20246;-58
2022/10/14 04:49:28;;;;;;;7.20;4.57;;;;;;;12.86;100.00;98671.06;4818177;29;20297;-56
2022/10/14 04:52:13;;;;;;;6.40;3.90;;;;;;;12.86;99.80;98665.81;4820897;29;20301;-57
2022/10/14 04:54:49;;;;;;;11.93;4.73;;;;;;;12.87;99.93;98656.97;4841374;29;20242;-57
2022/10/14 04:57:16;;;;;;;9.30;5.00;;;;;;;12.90;100.00;98648.78;4822624;29;20241;-54
2022/10/14 04:59:47;;;;;;;9.27;4.03;;;;;;;12.89;100.00;98649.78;4823479;29;20242;-57
2022/10/14 05:02:32;;;;;;;9.97;4.27;;;;;;;12.87;100.00;98656.16;4810284;29;20250;-58
2022/10/14 05:05:00;;;;;;;11.93;4.17;;;;;;;12.86;100.00;98642.25;4822136;29;20266;-56
2022/10/14 05:07:32;;;;;;;7.83;4.60;;;;;;;12.86;100.00;98631.78;4837809;29;20611;-56
2022/10/14 05:10:15;;;;;;;19.03;9.83;;;;;;;12.94;98.24;98628.31;4821839;29;20230;-56
2022/10/14 05:12:42;;;;;;;14.57;7.60;;;;;;;13.11;94.01;98622.06;4821910;29;20251;-58
2022/10/14 05:15:09;;;;;;;5.47;3.50;;;;;;;13.21;92.71;98608.78;4836786;29;20250;-56
2022/10/14 05:17:44;;;;;;;7.17;2.40;;;;;;;13.30;90.32;98609.56;4816836;29;20245;-57
2022/10/14 05:20:12;;;;;;;5.87;2.30;;;;;;;13.33;90.27;98611.84;4826415;29;20682;-55
2022/10/14 05:22:45;;;;;;;4.43;2.40;;;;;;;13.29;91.25;98605.31;4822848;29;20247;-56
2022/10/14 05:25:11;;;;;;;5.83;2.83;;;;;;;13.28;92.46;98601.84;4823391;29;20234;-56
2022/10/14 05:27:38;;;;;;;4.27;2.40;;;;;;;13.29;92.76;98607.94;4832820;29;20621;-56
2022/10/14 05:30:06;;;;;;;4.30;2.33;;;;;;;13.27;92.98;98607.28;4820159;29;20245;-57
2022/10/14 05:32:37;;;;;;;4.73;2.77;;;;;;;13.26;93.84;98610.88;4820799;29;20249;-57
2022/10/14 05:35:06;;;;;;;6.03;2.97;;;;;;;13.25;95.46;98604.81;4836942;29;20265;-55
2022/10/14 05:37:37;;;;;;;6.53;3.40;;;;;;;13.22;97.00;98601.72;4815382;29;20250;-57
2022/10/14 05:40:06;;;;;;;8.93;3.30;;;;;;;13.18;97.33;98601.25;4836503;29;20320;-57
2022/10/14 05:42:36;;;;;;;5.73;2.70;;;;;;;13.14;97.60;98611.25;4824520;29;20620;-56
2022/10/14 05:45:02;;;;;;;5.07;2.90;;;;;;;13.13;98.46;98604.38;4822330;29;20244;-56
2022/10/14 05:47:31;;;;;;;7.10;2.43;;;;;;;13.14;99.36;98605.19;4822732;29;20256;-57
2022/10/14 05:50:03;;;;;;;9.33;2.80;;;;;;;13.13;99.44;98614.03;4821605;29;20663;-57
2022/10/14 05:52:31;;;;;;;5.30;2.70;;;;;;;13.11;99.42;98616.81;4823024;29;20291;-57
2022/10/14 05:55:01;;;;;;;4.97;3.33;;;;;;;13.10;99.61;98609.13;4822062;29;20644;-57
2022/10/14 05:57:29;;;;;;;9.67;3.93;;;;;;;13.09;100.00;98612.75;4817855;29;20234;-55
2022/10/14 05:59:56;;;;;;;5.43;3.00;;;;;;;13.14;99.48;98619.09;4807280;29;20238;-57
2022/10/14 06:02:22;;;;;;;6.33;2.90;;;;;;;13.10;99.80;98614.38;4818858;29;22492;-58
2022/10/14 06:04:49;;;;;;;4.63;3.07;;;;;;;13.09;100.00;98607.50;4824851;29;20246;-58
2022/10/14 06:07:16;;;;;;;7.57;2.50;;;;;;;13.10;100.00;98609.94;4827170;29;20301;-58
2022/10/14 06:09:43;;;;;;;8.80;2.90;;;;;;;13.14;100.00;98618.31;4820192;29;20282;-58
2022/10/14 06:12:10;;;;;;;5.13;2.50;;;;;;;13.15;100.00;98614.69;4816532;29;20699;-57
2022/10/14 06:14:39;;;;;;;6.90;2.57;;;;;;;13.19;100.00;98615.16;4821623;29;20251;-58
2022/10/14 06:17:06;;;;;;;7.03;2.67;;;;;;;13.22;100.00;98620.91;4819318;29;20242;-59
2022/10/14 06:19:33;;;;;;;7.13;3.60;;;;;;;13.28;100.00;98620.19;4838576;29;20572;-58
2022/10/14 06:22:00;;;;;;;4.63;3.07;;;;;;;13.35;100.00;98624.78;4821898;29;20610;-57
2022/10/14 06:24:26;;;;;;;5.23;3.10;;;;;;;13.37;100.00;98622.81;4821064;29;20241;-58
2022/10/14 06:26:53;;;;;;;6.47;3.80;;;;;;;13.36;99.92;98622.00;4825192;29;20251;-58
2022/10/14 06:29:19;;;;;;;10.40;4.20;;;;;;;13.40;100.00;98625.09;4822126;29;20299;-58
2022/10/14 06:31:47;;;;;;;4.43;3.20;;;;;;;13.49;100.00;98628.53;4821956;29;20679;-58
2022/10/14 06:34:14;;;;;;;7.40;3.50;;;;;;;13.53;100.00;98620.16;4823772;29;20657;-58
2022/10/14 06:36:40;;;;;;;6.20;3.30;;;;;;;13.59;100.00;98623.91;4821628;29;20301;-58
2022/10/14 06:39:07;;;;;;;6.40;3.57;;;;;;;13.58;99.89;98617.84;4821824;29;20249;-57
2022/10/14 06:41:33;;;;;;;5.20;3.70;;;;;;;13.62;99.78;98617.50;4821348;29;20247;-58
2022/10/14 06:44:00;;;;;;;6.90;3.73;;;;;;;13.57;100.00;98615.41;4819094;29;20241;-57
2022/10/14 06:46:27;;;;;;;7.63;3.87;;;;;;;13.61;100.00;98611.44;4821493;29;20284;-57
2022/10/14 06:48:55;;;;;;;7.80;3.70;;;;;;;13.65;100.00;98609.28;4822005;29;20235;-57
2022/10/14 06:51:21;;;;;;;7.00;3.70;;;;;;;13.68;98.50;98596.66;4821453;29;20249;-57
2022/10/14 06:53:48;;;;;;;6.77;2.87;;;;;;;13.76;98.62;98600.25;4825177;29;20238;-58
2022/10/14 06:56:14;;;;;;;6.17;3.70;;;;;;;13.81;98.14;98590.00;4824356;29;20243;-57
2022/10/14 06:58:41;;;;;;;7.57;3.93;;;;;;;13.84;99.17;98587.06;4827462;29;20291;-57
2022/10/14 07:01:08;;;;;;;9.90;3.57;;;;;;;13.86;98.63;98591.16;4828782;29;20303;-58
2022/10/14 07:03:37;;;;;;;7.27;3.57;;;;;;;13.94;97.98;98586.84;4824954;29;20254;-57
2022/10/14 07:06:07;;;;;;;10.77;4.30;;;;;;;14.01;97.13;98596.47;4826010;29;20244;-59
2022/10/14 07:08:34;;;;;;;11.07;4.13;;;;;;;14.03;98.06;98599.72;4828328;29;20240;-59
2022/10/14 07:11:00;;;;;;;5.83;4.03;;;;;;;14.10;98.15;98599.03;4827023;29;20265;-59
2022/10/14 07:13:27;;;;;;;7.20;3.40;;;;;;;14.14;94.80;98595.91;4825774;29;20247;-59
2022/10/14 07:15:53;;;;;;;7.17;3.50;;;;;;;14.27;96.11;98597.13;4826746;29;20378;-58
2022/10/14 07:18:20;;;;;;;5.20;3.20;;;;;;;14.40;97.88;98596.53;4823621;29;20239;-58
2022/10/14 07:20:47;;;;;;;6.23;3.13;;;;;;;14.55;96.89;98592.16;4827141;29;20238;-59
2022/10/14 07:23:15;;;;;;;7.40;3.60;;;;;;;14.71;95.41;98600.91;4821991;29;20298;-59
2022/10/14 07:25:42;;;;;;;6.20;3.20;;;;;;;14.78;95.71;98604.47;4827898;29;20954;-57
2022/10/14 07:28:09;;;;;;;6.70;3.50;;;;;;;14.76;93.15;98603.81;4824708;29;20225;-59
2022/10/14 07:30:36;;;;;;;8.47;3.30;;;;;;;14.87;92.96;98605.97;4826631;29;20728;-58
2022/10/14 10:16:39;;;;;;;4.63;1.80;;;;;;;16.41;87.09;98571.16;4474390;31;20256;-58
2022/10/14 10:19:21;;;;;;;4.87;1.90;;;;;;;16.57;84.76;98568.25;4539745;31;20344;-58
2022/10/14 10:21:47;;;;;;;3.40;1.47;;;;;;;16.84;83.52;98565.81;4619350;30;20316;-57
2022/10/14 10:24:20;;;;;;;4.50;1.73;;;;;;;17.04;80.74;98558.03;4609021;30;20283;-58
2022/10/14 10:26:48;;;;;;;3.43;1.70;;;;;;;17.40;80.26;98564.91;4608835;30;20277;-58
2022/10/14 10:29:24;;;;;;;6.80;1.50;;;;;;;17.64;78.36;98560.13;4607417;30;20249;-58
2022/10/14 10:32:06;;;;;;;2.53;1.40;;;;;;;17.79;77.46;98545.94;4608752;30;20252;-59
2022/10/14 10:35:01;;;;;;;6.83;1.80;;;;;;;17.85;77.83;98542.50;4608566;30;20352;-59
2022/10/14 10:37:36;;;;;;;3.43;1.60;;;;;;;17.89;76.48;98543.72;4621144;30;20653;-58
2022/10/14 10:40:24;;;;;;;3.53;1.63;;;;;;;18.04;76.81;98538.28;4605809;30;20313;-58
2022/10/14 10:43:10;;;;;;;1.77;1.37;;;;;;;18.19;74.67;98532.84;4604474;30;20259;-58
2022/10/14 10:45:49;;;;;;;2.13;1.23;;;;;;;18.49;73.81;98529.78;4609807;30;20278;-59
2022/10/14 10:48:26;;;;;;;1.70;1.30;;;;;;;18.58;73.88;98527.72;4608143;30;20256;-58
2022/10/14 10:50:59;;;;;;;3.13;1.67;;;;;;;18.61;73.38;98521.22;4605166;30;20243;-57
2022/10/14 10:53:49;;;;;;;1.37;1.10;;;;;;;18.44;72.20;98511.88;4609135;30;20263;-57
2022/10/14 10:56:25;;;;;;;5.90;1.47;;;;;;;18.44;73.11;98509.25;4605660;30;20246;-59
2022/10/14 10:59:09;;;;;;;2.17;1.00;;;;;;;18.64;70.89;98507.56;4605896;30;21061;-59
2022/10/14 11:01:46;;;;;;;1.57;1.20;;;;;;;18.51;71.73;98503.13;4606795;30;20251;-59
2022/10/14 11:04:30;;;;;;;3.67;1.10;;;;;;;18.50;72.14;98504.97;4605502;30;20623;-58
2022/10/14 11:12:53;;;;;;;2.60;1.10;;;;;;;18.99;69.80;98499.38;4604079;30;20972;-59
2022/10/14 11:15:34;;;;;;;2.60;1.30;;;;;;;19.12;72.34;98499.34;4624022;30;20723;-59
2022/10/14 11:18:04;;;;;;;1.93;1.37;;;;;;;19.30;69.73;98489.91;4722989;30;20226;-58
2022/10/14 11:20:43;;;;;;;5.00;1.10;;;;;;;19.19;68.46;98491.38;4693737;29;1241928;-58
2022/10/14 11:23:40;;;;;;;4.83;1.40;;;;;;;19.03;69.92;98493.50;4698647;30;20862;-58
2022/10/14 11:26:20;;;;;;;1.30;1.13;;;;;;;19.20;69.79;98498.28;4680859;30;20788;-60
2022/10/14 11:28:55;;;;;;;2.67;1.20;;;;;;;19.16;69.81;98497.91;4693992;30;20847;-57
2022/10/14 11:31:32;;;;;;;2.20;1.10;;;;;;;19.00;69.48;98501.84;4702852;30;20295;-58
2022/10/14 11:34:37;;;;;;;2.43;1.13;;;;;;;18.83;70.20;98498.00;4704851;30;20264;-57
2022/10/14 11:37:45;;;;;;;2.07;1.30;;;;;;;19.00;70.81;98499.19;4693119;30;22580;-59
2022/10/14 11:40:21;;;;;;;3.23;1.30;;;;;;;18.83;71.32;98496.16;4698586;30;20230;-57
2022/10/14 11:43:04;;;;;;;3.60;1.30;;;;;;;18.90;70.70;98493.50;4697865;30;20255;-58
2022/10/14 11:45:46;;;;;;;2.10;1.10;;;;;;;19.01;69.91;98497.34;4700238;30;20245;-58
2022/10/14 11:48:28;;;;;;;2.13;1.30;;;;;;;18.86;71.08;98502.88;4696867;30;20302;-59
2022/10/14 11:51:02;;;;;;;2.33;1.47;;;;;;;19.37;71.77;98485.41;4706028;30;20320;-58
2022/10/14 11:53:42;;;;;;;3.10;1.57;;;;;;;19.38;68.85;98472.97;4705613;30;20360;-58
2022/10/14 11:56:24;;;;;;;3.30;1.37;;;;;;;19.28;69.41;98462.84;4708988;30;20707;-57
2022/10/14 11:58:53;;;;;;;2.97;1.30;;;;;;;19.55;71.48;98463.50;4703045;30;20660;-58
2022/10/14 12:01:29;;;;;;;5.23;1.33;;;;;;;19.35;69.85;98468.91;4705392;30;20254;-58
2022/10/14 12:04:04;;;;;;;2.03;1.37;;;;;;;18.68;70.47;98474.41;4709221;30;20234;-58
2022/10/14 12:06:35;;;;;;;5.37;1.60;;;;;;;18.84;71.12;98470.53;4704944;30;20247;-58
2022/10/14 12:09:12;;;;;;;5.93;2.00;;;;;;;18.63;72.62;98472.41;4705780;30;20623;-58
2022/10/14 12:11:44;;;;;;;2.97;1.50;;;;;;;18.92;70.35;98451.78;4701667;30;20239;-57
2022/10/14 12:14:16;;;;;;;5.63;1.60;;;;;;;18.69;73.48;98449.59;4708820;30;20734;-57
2022/10/14 12:16:45;;;;;;;5.00;1.60;;;;;;;19.01;71.50;98452.38;4803680;29;20243;-57
2022/10/14 12:19:17;;;;;;;3.60;1.80;;;;;;;19.06;70.58;98449.13;4935764;28;20284;-58
2022/10/14 12:21:51;;;;;;;2.83;1.33;;;;;;;18.99;71.09;98441.19;4923490;28;20242;-58
2022/10/14 12:24:21;;;;;;;3.17;1.27;;;;;;;19.12;70.28;98445.59;4923224;28;20302;-59
2022/10/14 12:26:52;;;;;;;3.47;1.30;;;;;;;18.80;71.58;98445.53;4927232;28;20718;-58
2022/10/14 12:29:22;;;;;;;4.43;1.30;;;;;;;18.56;72.38;98438.06;4927570;28;20286;-59
2022/10/14 12:32:05;;;;;;;6.87;1.40;;;;;;;18.44;72.67;98447.66;4928655;29;20228;-59
2022/10/14 12:34:34;;;;;;;2.07;1.40;;;;;;;18.25;73.46;98449.28;4926951;28;20949;-58
2022/10/14 12:37:37;;;;;;;2.07;1.37;;;;;;;17.96;75.87;98448.69;4930308;28;20261;-58
2022/10/14 12:40:24;;;;;;;4.20;1.40;;;;;;;17.72;75.91;98453.53;4921322;29;20240;-57
2022/10/14 12:42:58;;;;;;;1.83;1.37;;;;;;;17.55;78.56;98450.47;4927203;28;20262;-57
2022/10/14 12:45:26;;;;;;;2.53;1.30;;;;;;;17.62;79.41;98453.13;4927705;28;20722;-58
2022/10/14 12:48:03;;;;;;;3.00;1.50;;;;;;;17.78;79.72;98451.91;4929873;29;20238;-58
2022/10/14 12:50:35;;;;;;;3.10;1.43;;;;;;;17.90;80.66;98455.59;4922643;29;20874;-58
2022/10/14 12:53:04;;;;;;;3.07;1.20;;;;;;;18.13;81.19;98457.03;4927124;29;20235;-60
2022/10/14 12:55:39;;;;;;;2.73;1.70;;;;;;;18.21;80.43;98453.38;4926992;28;20302;-58
2022/10/14 12:58:06;;;;;;;5.13;1.70;;;;;;;18.02;79.86;98465.56;4927938;29;20569;-58
2022/10/14 13:00:38;;;;;;;2.70;1.43;;;;;;;17.67;80.87;98471.81;4926893;28;20300;-58
2022/10/14 13:03:16;;;;;;;3.37;1.50;;;;;;;17.60;80.57;98461.22;4928843;29;20289;-58
2022/10/14 13:05:44;;;;;;;2.33;1.57;;;;;;;17.44;83.22;98470.34;4927398;28;20237;-58
2022/10/14 13:08:14;;;;;;;6.27;1.80;;;;;;;17.23;84.52;98468.66;4929742;29;20230;-57
2022/10/14 13:10:47;;;;;;;2.97;1.50;;;;;;;17.09;84.23;98465.16;4926716;28;20337;-58
2022/10/14 13:13:51;;;;;;;3.33;1.70;;;;;;;17.13;83.03;98474.28;4923579;28;20245;-59
2022/10/14 13:16:57;;;;;;;2.50;1.80;;;;;;;16.85;85.30;98477.00;4944651;28;20291;-59
2022/10/14 13:19:44;;;;;;;5.00;1.80;;;;;;;16.76;87.93;98478.97;4950954;28;20321;-57
2022/10/14 13:22:39;;;;;;;3.40;2.20;;;;;;;16.73;88.57;98472.25;4986195;28;20237;-57
2022/10/14 13:25:20;;;;;;;3.00;1.70;;;;;;;16.86;88.42;98475.97;4984380;28;20237;-57
2022/10/14 13:28:04;;;;;;;6.67;2.03;;;;;;;16.94;87.65;98479.28;4983785;28;20639;-57
2022/10/14 13:30:37;;;;;;;4.87;2.37;;;;;;;16.92;87.99;98475.19;4983607;28;20235;-58
2022/10/14 13:33:13;;;;;;;5.33;2.93;;;;;;;16.83;88.25;98471.94;4967693;28;20238;-59
2022/10/14 13:35:49;;;;;;;3.70;2.00;;;;;;;17.02;89.53;98470.41;4979882;28;20671;-59
2022/10/14 13:38:19;;;;;;;4.40;2.30;;;;;;;16.93;89.80;98461.00;4983545;28;20241;-59
2022/10/14 13:40:50;;;;;;;5.03;2.67;;;;;;;16.77;89.21;98455.06;4987038;28;20222;-58
2022/10/14 13:43:21;;;;;;;3.50;2.13;;;;;;;16.80;89.50;98453.88;4984513;28;20245;-59
2022/10/14 13:45:51;;;;;;;4.93;2.20;;;;;;;16.71;90.42;98442.66;4985843;28;20231;-58
2022/10/14 13:48:22;;;;;;;3.83;2.13;;;;;;;16.59;91.38;98436.31;4984031;28;20642;-58
2022/10/14 13:50:52;;;;;;;3.10;2.00;;;;;;;16.73;90.42;98435.38;4984233;28;20226;-58
2022/10/14 13:53:21;;;;;;;3.87;2.10;;;;;;;16.67;92.01;98439.59;4981964;28;20780;-59
2022/10/14 13:55:51;;;;;;;4.63;2.30;;;;;;;16.61;91.25;98442.19;4985918;28;20326;-58
2022/10/14 13:58:21;;;;;;;5.20;2.03;;;;;;;16.75;90.90;98437.81;4983172;28;20293;-58
2022/10/14 14:00:58;;;;;;;4.07;2.33;;;;;;;17.10;89.48;98437.75;4986075;28;20286;-58
2022/10/14 14:03:26;;;;;;;3.40;2.00;;;;;;;17.15;88.46;98445.09;4979573;28;20242;-59
2022/10/14 14:05:53;;;;;;;3.30;1.80;;;;;;;16.95;87.02;98436.09;4980772;28;20550;-59
2022/10/14 14:08:23;;;;;;;4.10;1.60;;;;;;;16.92;87.11;98448.84;4979919;28;20231;-59
2022/10/14 14:10:52;;;;;;;2.83;1.40;;;;;;;17.08;86.52;98447.69;4984083;28;20293;-57
2022/10/14 14:13:21;;;;;;;2.73;1.30;;;;;;;17.08;86.68;98437.16;4974935;28;20237;-59
2022/10/14 14:15:53;;;;;;;5.50;1.00;;;;;;;17.18;84.65;98437.59;4985730;28;20753;-57
2022/10/14 14:18:27;;;;;;;1.40;1.30;;;;;;;17.37;84.82;98440.50;4995111;28;20222;-59
2022/10/14 14:20:58;;;;;;;1.70;0.90;;;;;;;17.22;83.53;98440.66;4959233;28;20826;-59
2022/10/14 14:23:26;;;;;;;2.93;0.80;;;;;;;17.24;83.63;98434.16;4954593;28;20314;-59
2022/10/14 14:25:54;;;;;;;2.97;0.87;;;;;;;17.22;83.74;98433.56;4960458;28;20227;-58
2022/10/14 14:28:25;;;;;;;2.40;1.20;;;;;;;17.24;84.34;98433.38;4956220;28;20286;-59
2022/10/14 14:30:54;;;;;;;2.30;0.80;;;;;;;17.23;83.68;98416.72;4957919;28;20246;-59
2022/10/14 14:33:28;;;;;;;1.53;0.87;;;;;;;17.23;83.55;98422.00;4941957;28;20737;-59
2022/10/14 14:35:57;;;;;;;1.00;0.90;;;;;;;17.20;85.42;98416.31;4961787;28;20289;-58
2022/10/14 14:38:29;;;;;;;2.40;0.80;;;;;;;17.15;84.50;98418.72;4955571;28;20275;-59
2022/10/14 14:41:04;;;;;;;1.30;0.90;;;;;;;17.23;84.83;98419.34;4956386;28;20263;-58
2022/10/14 14:43:34;;;;;;;0.80;0.77;;;;;;;17.17;85.91;98432.53;4945643;28;20259;-59
2022/10/14 14:46:02;;;;;;;2.33;0.57;;;;;;;17.08;86.72;98437.97;4947057;28;20236;-58